createdAt,value
2023-04-18T00:00:03.493Z,93.87
2023-04-18T00:01:03.550Z,93.97
2023-04-18T00:02:03.715Z,93.85
2023-04-18T00:03:04.709Z,94.14
2023-04-18T00:04:03.860Z,92.02
2023-04-18T00:05:03.815Z,93.21
2023-04-18T00:06:03.722Z,91.38
2023-04-18T00:07:03.730Z,93.14
2023-04-18T00:08:03.777Z,91.77
2023-04-18T00:09:03.835Z,91.02
2023-04-18T00:10:03.854Z,91.14
2023-04-18T00:11:03.881Z,91.20
2023-04-18T00:12:03.925Z,90.31
2023-04-18T00:13:03.962Z,91.27
2023-04-18T00:14:03.990Z,88.42
2023-04-18T00:15:04.079Z,90.82
2023-04-18T00:16:04.075Z,91.10
2023-04-18T00:17:04.191Z,90.54
2023-04-18T00:18:04.211Z,89.04
2023-04-18T00:19:04.166Z,90.67
2023-04-18T00:20:04.232Z,89.72
2023-04-18T00:21:04.258Z,89.69
2023-04-18T00:22:04.294Z,88.26
2023-04-18T00:23:04.337Z,89.65
2023-04-18T00:24:04.357Z,87.42
2023-04-18T00:25:04.407Z,87.44
2023-04-18T00:26:04.407Z,87.15
2023-04-18T00:27:04.468Z,88.14
2023-04-18T00:28:04.492Z,87.85
2023-04-18T00:29:04.556Z,88.46
2023-04-18T00:30:04.557Z,86.34
2023-04-18T00:31:04.679Z,85.76
2023-04-18T00:32:04.641Z,86.81
2023-04-18T00:33:04.731Z,86.49
2023-04-18T00:34:04.716Z,87.18
2023-04-18T00:35:04.780Z,86.65
2023-04-18T00:36:04.818Z,85.79
2023-04-18T00:37:04.839Z,85.35
2023-04-18T00:38:04.909Z,88.23
2023-04-18T00:39:04.945Z,85.10
2023-04-18T00:40:04.991Z,85.16
2023-04-18T00:41:05.014Z,85.53
2023-04-18T00:42:05.065Z,83.10
2023-04-18T00:43:05.119Z,83.97
2023-04-18T00:44:05.121Z,84.73
2023-04-18T00:45:05.162Z,82.82
2023-04-18T00:46:05.285Z,84.66
2023-04-18T00:47:05.217Z,84.08
2023-04-18T00:48:05.330Z,83.29
2023-04-18T00:49:05.306Z,83.71
2023-04-18T00:50:05.361Z,83.63
2023-04-18T00:51:05.387Z,83.49
2023-04-18T00:52:05.493Z,82.81
2023-04-18T00:53:05.475Z,82.32
2023-04-18T00:54:05.520Z,81.94
2023-04-18T00:55:05.557Z,81.53
2023-04-18T00:56:05.594Z,82.43
2023-04-18T00:57:05.644Z,81.88
2023-04-18T00:58:05.673Z,80.53
2023-04-18T00:59:05.677Z,82.09
2023-04-18T01:00:05.744Z,81.50
2023-04-18T01:01:05.844Z,81.13
2023-04-18T01:02:05.977Z,80.57
2023-04-18T01:03:06.009Z,79.66
2023-04-18T01:04:06.014Z,79.44
2023-04-18T01:05:05.973Z,79.68
2023-04-18T01:06:06.019Z,78.93
2023-04-18T01:07:06.060Z,78.25
2023-04-18T01:08:06.087Z,80.19
2023-04-18T01:09:06.130Z,79.88
2023-04-18T01:10:06.182Z,78.75
2023-04-18T01:11:06.213Z,79.37
2023-04-18T01:12:06.312Z,78.37
2023-04-18T01:13:06.319Z,79.19
2023-04-18T01:14:06.343Z,78.79
2023-04-18T01:15:06.396Z,77.56
2023-04-18T01:16:06.467Z,80.32
2023-04-18T01:17:06.461Z,78.21
2023-04-18T01:18:06.560Z,78.87
2023-04-18T01:19:06.593Z,78.43
2023-04-18T01:20:06.656Z,76.92
2023-04-18T01:21:06.655Z,76.35
2023-04-18T01:22:06.698Z,77.02
2023-04-18T01:23:06.772Z,77.21
2023-04-18T01:24:06.822Z,77.65
2023-04-18T01:25:06.878Z,76.39
2023-04-18T01:26:06.899Z,75.81
2023-04-18T01:27:06.970Z,74.57
2023-04-18T01:28:06.995Z,77.31
2023-04-18T01:29:07.062Z,75.54
2023-04-18T01:30:07.114Z,74.29
2023-04-18T01:31:07.244Z,75.88
2023-04-18T01:32:07.189Z,76.29
2023-04-18T01:33:07.228Z,74.40
2023-04-18T01:34:07.297Z,73.76
2023-04-18T01:35:07.349Z,72.36
2023-04-18T01:36:07.367Z,73.45
2023-04-18T01:37:07.390Z,74.12
2023-04-18T01:38:07.455Z,72.64
2023-04-18T01:39:07.506Z,75.11
2023-04-18T01:40:07.528Z,74.55
2023-04-18T01:41:07.570Z,73.40
2023-04-18T01:42:07.588Z,74.26
2023-04-18T01:43:07.655Z,72.65
2023-04-18T01:44:07.727Z,72.68
2023-04-18T01:45:07.743Z,71.49
2023-04-18T01:46:07.806Z,72.33
2023-04-18T01:47:07.836Z,72.67
2023-04-18T01:48:07.908Z,72.30
2023-04-18T01:49:07.931Z,71.61
2023-04-18T01:50:07.991Z,72.42
2023-04-18T01:51:08.010Z,72.05
2023-04-18T01:52:08.054Z,71.36
2023-04-18T01:53:08.095Z,68.98
2023-04-18T01:54:08.145Z,71.67
2023-04-18T01:55:08.191Z,70.69
2023-04-18T01:56:08.266Z,70.86
2023-04-18T01:57:08.286Z,70.87
2023-04-18T01:58:08.356Z,72.10
2023-04-18T01:59:08.360Z,70.04
2023-04-18T02:00:08.434Z,68.46
2023-04-18T02:01:08.656Z,68.86
2023-04-18T02:02:08.588Z,70.00
2023-04-18T02:03:08.693Z,71.16
2023-04-18T02:04:08.690Z,68.10
2023-04-18T02:05:08.628Z,71.70
2023-04-18T02:06:08.721Z,67.91
2023-04-18T02:07:08.722Z,69.48
2023-04-18T02:08:08.794Z,68.46
2023-04-18T02:09:08.815Z,67.69
2023-04-18T02:10:08.917Z,68.21
2023-04-18T02:11:08.935Z,67.46
2023-04-18T02:12:08.956Z,68.59
2023-04-18T02:13:08.991Z,66.93
2023-04-18T02:14:09.032Z,66.66
2023-04-18T02:15:09.099Z,65.89
2023-04-18T02:16:09.153Z,66.68
2023-04-18T02:17:09.198Z,67.29
2023-04-18T02:18:09.240Z,65.78
2023-04-18T02:19:09.292Z,67.43
2023-04-18T02:20:09.315Z,65.03
2023-04-18T02:21:09.392Z,66.55
2023-04-18T02:22:09.428Z,64.30
2023-04-18T02:23:09.492Z,63.85
2023-04-18T02:24:09.527Z,65.10
2023-04-18T02:25:09.583Z,66.18
2023-04-18T02:26:09.610Z,65.51
2023-04-18T02:27:09.682Z,64.46
2023-04-18T02:28:09.711Z,65.16
2023-04-18T02:29:09.757Z,64.88
2023-04-18T02:30:09.849Z,64.89
2023-04-18T02:31:09.871Z,63.73
2023-04-18T02:32:09.965Z,64.50
2023-04-18T02:33:09.957Z,65.02
2023-04-18T02:34:09.996Z,63.64
2023-04-18T02:35:10.053Z,62.61
2023-04-18T02:36:10.090Z,63.51
2023-04-18T02:37:10.161Z,62.43
2023-04-18T02:38:10.155Z,62.13
2023-04-18T02:39:10.233Z,61.71
2023-04-18T02:40:10.314Z,61.74
2023-04-18T02:41:10.331Z,59.70
2023-04-18T02:42:10.372Z,61.81
2023-04-18T02:43:10.420Z,60.04
2023-04-18T02:44:10.491Z,63.37
2023-04-18T02:45:10.608Z,59.69
2023-04-18T02:46:10.616Z,61.33
2023-04-18T02:47:10.640Z,59.34
2023-04-18T02:48:10.704Z,59.60
2023-04-18T02:49:10.739Z,58.82
2023-04-18T02:50:10.797Z,59.08
2023-04-18T02:51:10.828Z,61.10
2023-04-18T02:52:10.858Z,59.82
2023-04-18T02:53:10.886Z,60.68
2023-04-18T02:54:11.087Z,59.30
2023-04-18T02:55:11.103Z,61.00
2023-04-18T02:56:11.048Z,58.40
2023-04-18T02:57:11.107Z,59.28
2023-04-18T02:58:11.168Z,59.60
2023-04-18T02:59:11.204Z,58.68
2023-04-18T03:00:11.295Z,57.90
2023-04-18T03:01:11.387Z,59.00
2023-04-18T03:02:11.435Z,56.92
2023-04-18T03:03:11.517Z,58.59
2023-04-18T03:04:11.565Z,56.46
2023-04-18T03:05:11.566Z,57.05
2023-04-18T03:06:11.583Z,57.50
2023-04-18T03:07:11.664Z,56.22
2023-04-18T03:08:11.679Z,56.28
2023-04-18T03:09:11.725Z,56.87
2023-04-18T03:10:11.796Z,56.74
2023-04-18T03:11:11.878Z,56.63
2023-04-18T03:12:11.867Z,55.96
2023-04-18T03:13:11.927Z,53.90
2023-04-18T03:14:12.125Z,55.00
2023-04-18T03:15:12.049Z,54.61
2023-04-18T03:16:13.028Z,54.22
2023-04-18T03:17:12.107Z,53.97
2023-04-18T03:18:12.147Z,54.02
2023-04-18T03:19:12.234Z,53.03
2023-04-18T03:20:12.259Z,54.49
2023-04-18T03:21:12.301Z,52.91
2023-04-18T03:22:12.351Z,51.99
2023-04-18T03:23:12.379Z,53.04
2023-04-18T03:24:12.474Z,51.58
2023-04-18T03:25:12.523Z,51.64
2023-04-18T03:26:12.563Z,52.19
2023-04-18T03:27:12.581Z,53.41
2023-04-18T03:28:12.654Z,52.46
2023-04-18T03:29:12.707Z,50.77
2023-04-18T03:30:12.762Z,50.28
2023-04-18T03:31:12.836Z,50.98
2023-04-18T03:32:12.902Z,51.05
2023-04-18T03:33:12.884Z,50.90
2023-04-18T03:34:13.125Z,50.28
2023-04-18T03:35:13.001Z,49.83
2023-04-18T03:36:13.051Z,48.02
2023-04-18T03:37:13.102Z,49.88
2023-04-18T03:38:13.173Z,50.88
2023-04-18T03:39:13.191Z,50.42
2023-04-18T03:40:13.268Z,48.49
2023-04-18T03:41:13.294Z,50.14
2023-04-18T03:42:13.342Z,50.22
2023-04-18T03:43:13.367Z,50.89
2023-04-18T03:45:13.529Z,47.02
2023-04-18T03:46:13.580Z,47.09
2023-04-18T03:47:13.568Z,48.69
2023-04-18T03:48:13.726Z,47.48
2023-04-18T03:49:13.690Z,48.32
2023-04-18T03:50:13.737Z,47.76
2023-04-18T03:51:13.816Z,47.04
2023-04-18T03:52:13.896Z,48.13
2023-04-18T03:53:13.930Z,47.00
2023-04-18T03:54:14.119Z,46.37
2023-04-18T03:55:14.041Z,45.19
2023-04-18T03:56:14.082Z,46.21
2023-04-18T03:57:14.145Z,45.06
2023-04-18T03:58:14.983Z,44.29
2023-04-18T03:59:14.257Z,46.35
2023-04-18T04:00:14.300Z,46.49
2023-04-18T04:01:14.365Z,46.54
2023-04-18T04:02:14.497Z,43.93
2023-04-18T04:03:14.533Z,45.76
2023-04-18T04:04:14.954Z,44.07
2023-04-18T04:05:14.554Z,45.01
2023-04-18T04:06:14.651Z,45.46
2023-04-18T04:07:14.680Z,42.81
2023-04-18T04:08:14.760Z,44.34
2023-04-18T04:09:14.803Z,43.91
2023-04-18T04:10:14.876Z,43.42
2023-04-18T04:11:14.898Z,42.50
2023-04-18T04:12:14.964Z,43.55
2023-04-18T04:13:15.058Z,44.62
2023-04-18T04:14:15.307Z,44.84
2023-04-18T04:15:15.163Z,42.14
2023-04-18T04:16:15.182Z,41.85
2023-04-18T04:17:15.221Z,41.46
2023-04-18T04:18:15.241Z,40.30
2023-04-18T04:19:15.334Z,41.30
2023-04-18T04:20:15.400Z,40.47
2023-04-18T04:21:15.434Z,40.50
2023-04-18T04:22:15.493Z,40.44
2023-04-18T04:23:15.553Z,39.66
2023-04-18T04:24:15.876Z,40.47
2023-04-18T04:25:15.663Z,40.05
2023-04-18T04:26:15.680Z,40.30
2023-04-18T04:27:15.754Z,41.53
2023-04-18T04:28:15.795Z,41.20
2023-04-18T04:29:15.866Z,40.37
2023-04-18T04:30:15.901Z,40.00
2023-04-18T04:31:15.989Z,41.88
2023-04-18T04:32:16.020Z,41.25
2023-04-18T04:33:16.098Z,41.29
2023-04-18T04:34:16.281Z,38.12
2023-04-18T04:35:16.180Z,37.79
2023-04-18T04:36:18.642Z,39.51
2023-04-18T04:37:16.369Z,38.01
2023-04-18T04:38:16.292Z,38.11
2023-04-18T04:39:16.260Z,37.75
2023-04-18T04:40:16.285Z,36.82
2023-04-18T04:41:16.264Z,34.65
2023-04-18T04:42:16.230Z,35.23
2023-04-18T04:43:16.242Z,36.24
2023-04-18T04:44:16.472Z,36.64
2023-04-18T04:45:16.246Z,37.86
2023-04-18T04:46:16.290Z,37.89
2023-04-18T04:47:16.239Z,37.14
2023-04-18T04:48:16.242Z,37.28
2023-04-18T04:49:16.222Z,35.17
2023-04-18T04:50:16.237Z,34.82
2023-04-18T04:51:16.190Z,34.17
2023-04-18T04:52:16.239Z,36.26
2023-04-18T04:53:16.212Z,39.81
2023-04-18T04:54:16.460Z,35.36
2023-04-18T04:55:16.221Z,36.14
2023-04-18T04:56:16.191Z,37.91
2023-04-18T04:57:16.184Z,37.16
2023-04-18T04:58:16.186Z,34.97
2023-04-18T04:59:16.216Z,38.74
2023-04-18T05:00:16.193Z,36.65
2023-04-18T05:01:16.205Z,37.22
2023-04-18T05:02:16.201Z,35.08
2023-04-18T05:03:16.285Z,33.14
2023-04-18T05:04:16.477Z,35.12
2023-04-18T05:05:16.183Z,35.60
2023-04-18T05:06:16.154Z,32.61
2023-04-18T05:07:16.163Z,34.81
2023-04-18T05:08:16.162Z,31.54
2023-04-18T05:09:16.160Z,33.02
2023-04-18T05:10:16.199Z,35.05
2023-04-18T05:11:16.155Z,34.12
2023-04-18T05:12:16.168Z,31.10
2023-04-18T05:13:16.160Z,32.45
2023-04-18T05:14:16.328Z,31.19
2023-04-18T05:15:16.171Z,28.97
2023-04-18T05:16:16.171Z,31.60
2023-04-18T05:17:16.151Z,29.57
2023-04-18T05:18:16.229Z,28.66
2023-04-18T05:19:16.251Z,29.09
2023-04-18T05:20:16.347Z,28.70
2023-04-18T05:21:16.359Z,29.38
2023-04-18T05:22:16.450Z,29.61
2023-04-18T05:23:16.519Z,28.57
2023-04-18T05:24:16.812Z,28.65
2023-04-18T05:25:16.623Z,29.09
2023-04-18T05:26:16.630Z,26.75
2023-04-18T05:27:18.182Z,29.62
2023-04-18T05:28:16.799Z,27.73
2023-04-18T05:29:16.822Z,28.19
2023-04-18T05:30:17.041Z,29.30
2023-04-18T05:31:16.982Z,27.08
2023-04-18T05:32:16.979Z,27.51
2023-04-18T05:33:17.043Z,26.29
2023-04-18T05:34:17.118Z,27.07
2023-04-18T05:35:17.127Z,27.75
2023-04-18T05:36:17.223Z,28.06
2023-04-18T05:37:17.268Z,31.05
2023-04-18T05:38:17.360Z,29.63
2023-04-18T05:39:17.367Z,29.56
2023-04-18T05:40:17.547Z,32.45
2023-04-18T05:41:17.482Z,33.03
2023-04-18T05:42:17.542Z,35.77
2023-04-18T05:43:17.590Z,38.40
2023-04-18T05:44:17.855Z,37.28
2023-04-18T05:45:18.042Z,43.68
2023-04-18T05:46:17.725Z,42.04
2023-04-18T05:47:17.780Z,44.78
2023-04-18T05:48:17.804Z,50.24
2023-04-18T05:49:17.825Z,54.43
2023-04-18T05:50:17.925Z,56.40
2023-04-18T05:51:17.905Z,57.26
2023-04-18T05:52:17.944Z,59.46
2023-04-18T05:53:25.037Z,64.21
2023-04-18T05:54:17.988Z,64.79
2023-04-18T05:55:17.985Z,66.84
2023-04-18T05:56:18.029Z,70.82
2023-04-18T05:57:17.968Z,78.78
2023-04-18T05:58:17.957Z,95.24
2023-04-18T05:59:17.943Z,99.35
2023-04-18T06:00:17.966Z,100.16
2023-04-18T06:01:17.929Z,102.34
2023-04-18T06:02:17.964Z,105.83
2023-04-18T06:03:18.263Z,111.83
2023-04-18T06:04:18.025Z,119.36
2023-04-18T06:05:18.156Z,121.80
2023-04-18T06:06:17.874Z,125.77
2023-04-18T06:07:17.865Z,128.40
2023-04-18T06:08:17.839Z,137.44
2023-04-18T06:09:17.843Z,140.99
2023-04-18T06:10:17.830Z,149.23
2023-04-18T06:11:17.804Z,158.20
2023-04-18T06:12:17.801Z,162.95
2023-04-18T06:13:17.781Z,166.89
2023-04-18T06:14:17.805Z,169.85
2023-04-18T06:15:17.743Z,176.23
2023-04-18T06:16:17.796Z,180.43
2023-04-18T06:17:17.726Z,183.15
2023-04-18T06:18:17.722Z,186.00
2023-04-18T06:19:17.687Z,192.02
2023-04-18T06:20:18.092Z,200.24
2023-04-18T06:21:17.683Z,205.00
2023-04-18T06:22:17.672Z,204.20
2023-04-18T06:23:17.640Z,211.30
2023-04-18T06:24:17.650Z,212.52
2023-04-18T06:25:17.704Z,212.16
2023-04-18T06:26:17.611Z,222.70
2023-04-18T06:27:30.136Z,227.62
2023-04-18T06:28:18.664Z,228.61
2023-04-18T06:29:17.561Z,231.95
2023-04-18T06:30:17.539Z,235.87
2023-04-18T06:31:17.560Z,240.50
2023-04-18T06:32:17.497Z,249.85
2023-04-18T06:33:17.524Z,247.38
2023-04-18T06:34:17.483Z,250.00
2023-04-18T06:35:17.468Z,250.00
2023-04-18T06:36:17.483Z,249.31
2023-04-18T06:37:17.538Z,249.93
2023-04-18T06:38:17.606Z,248.32
2023-04-18T06:39:17.673Z,248.93
2023-04-18T06:40:17.730Z,250.00
2023-04-18T06:41:17.749Z,249.25
2023-04-18T06:42:18.711Z,250.00
2023-04-18T06:43:17.864Z,248.03
2023-04-18T06:44:17.948Z,249.49
2023-04-18T06:45:18.074Z,250.00
2023-04-18T06:46:18.071Z,246.17
2023-04-18T06:47:18.067Z,241.16
2023-04-18T06:48:18.154Z,238.34
2023-04-18T06:49:18.128Z,245.81
2023-04-18T06:50:18.213Z,245.02
2023-04-18T06:51:18.264Z,240.59
2023-04-18T06:52:18.290Z,240.96
2023-04-18T06:53:18.344Z,246.14
2023-04-18T06:54:18.467Z,240.67
2023-04-18T06:55:18.459Z,240.35
2023-04-18T06:56:18.493Z,242.25
2023-04-18T06:57:18.549Z,237.52
2023-04-18T06:58:18.566Z,240.15
2023-04-18T06:59:18.606Z,242.26
2023-04-18T07:00:18.653Z,241.14
2023-04-18T07:01:18.724Z,243.85
2023-04-18T07:02:18.860Z,249.27
2023-04-18T07:03:18.922Z,248.06
2023-04-18T07:04:19.141Z,248.11
2023-04-18T07:05:18.802Z,248.68
2023-04-18T07:06:18.825Z,248.96
2023-04-18T07:07:18.884Z,248.67
2023-04-18T07:08:18.863Z,249.04
2023-04-18T07:09:18.940Z,248.07
2023-04-18T07:10:18.936Z,250.00
2023-04-18T07:11:18.934Z,248.61
2023-04-18T07:12:18.920Z,249.55
2023-04-18T07:13:19.680Z,249.91
2023-04-18T07:14:18.966Z,249.45
2023-04-18T07:15:18.976Z,245.47
2023-04-18T07:16:19.144Z,249.87
2023-04-18T07:17:19.054Z,250.00
2023-04-18T07:18:30.317Z,250.00
2023-04-18T07:19:19.973Z,250.24
2023-04-18T07:20:18.973Z,250.20
2023-04-18T07:21:18.926Z,251.11
2023-04-18T07:22:18.860Z,254.98
2023-04-18T07:23:18.857Z,257.18
2023-04-18T07:24:18.830Z,250.00
2023-04-18T07:25:19.078Z,247.15
2023-04-18T07:26:18.756Z,247.45
2023-04-18T07:27:18.730Z,249.03
2023-04-18T07:28:18.701Z,249.47
2023-04-18T07:29:18.672Z,248.69
2023-04-18T07:30:18.635Z,246.17
2023-04-18T07:31:18.649Z,249.23
2023-04-18T07:32:18.694Z,246.89
2023-04-18T07:33:18.561Z,247.62
2023-04-18T07:34:18.509Z,248.77
2023-04-18T07:35:18.511Z,250.00
2023-04-18T07:36:18.468Z,248.13
2023-04-18T07:37:18.445Z,249.06
2023-04-18T07:38:18.447Z,248.02
2023-04-18T07:39:18.435Z,247.23
2023-04-18T07:40:18.570Z,250.00
2023-04-18T07:41:18.420Z,248.74
2023-04-18T07:42:18.425Z,245.86
2023-04-18T07:43:19.809Z,248.74
2023-04-18T07:44:18.384Z,246.33
2023-04-18T07:45:18.599Z,247.95
2023-04-18T07:46:18.609Z,250.00
2023-04-18T07:47:22.456Z,245.04
2023-04-18T07:48:18.385Z,245.30
2023-04-18T07:49:18.314Z,245.85
2023-04-18T07:50:18.299Z,246.90
2023-04-18T07:51:18.247Z,249.03
2023-04-18T07:52:18.224Z,254.65
2023-04-18T07:53:18.184Z,250.00
2023-04-18T07:54:18.173Z,248.99
2023-04-18T07:55:18.153Z,247.35
2023-04-18T07:56:18.127Z,248.11
2023-04-18T07:57:18.073Z,249.09
2023-04-18T07:58:18.035Z,249.00
2023-04-18T07:59:17.994Z,248.08
2023-04-18T08:00:17.981Z,247.62
2023-04-18T08:01:17.964Z,245.50
2023-04-18T08:02:18.021Z,248.05
2023-04-18T08:03:18.066Z,249.23
2023-04-18T08:04:18.155Z,248.20
2023-04-18T08:05:17.867Z,246.12
2023-04-18T08:06:17.881Z,245.33
2023-04-18T08:07:17.792Z,244.61
2023-04-18T08:08:17.804Z,245.53
2023-04-18T08:09:17.752Z,247.71
2023-04-18T08:10:17.746Z,244.28
2023-04-18T08:11:17.687Z,231.80
2023-04-18T08:12:17.659Z,233.04
2023-04-18T08:13:17.642Z,223.18
2023-04-18T08:14:17.667Z,217.79
2023-04-18T08:15:17.623Z,207.28
2023-04-18T08:16:17.809Z,195.38
2023-04-18T08:17:17.575Z,191.63
2023-04-18T08:18:17.555Z,196.96
2023-04-18T08:19:17.502Z,195.49
2023-04-18T08:20:17.586Z,190.08
2023-04-18T08:21:17.465Z,177.86
2023-04-18T08:22:17.416Z,179.15
2023-04-18T08:23:17.420Z,182.21
2023-04-18T08:24:17.402Z,181.54
2023-04-18T08:25:17.357Z,162.49
2023-04-18T08:26:17.344Z,161.45
2023-04-18T08:27:17.312Z,146.98
2023-04-18T08:28:17.293Z,143.81
2023-04-18T08:29:17.269Z,150.03
2023-04-18T08:30:17.208Z,127.88
2023-04-18T08:31:17.285Z,134.88
2023-04-18T08:32:17.227Z,138.88
2023-04-18T08:33:17.220Z,138.97
2023-04-18T08:34:17.159Z,140.29
2023-04-18T08:35:17.122Z,129.73
2023-04-18T08:36:17.214Z,121.70
2023-04-18T08:37:17.098Z,101.91
2023-04-18T08:38:17.053Z,87.02
2023-04-18T08:39:17.043Z,72.12
2023-04-18T08:40:17.015Z,68.02
2023-04-18T08:41:17.150Z,50.26
2023-04-18T08:42:16.959Z,53.38
2023-04-18T08:43:16.906Z,62.49
2023-04-18T08:44:16.894Z,24.02
2023-04-18T08:45:16.853Z,19.41
2023-04-18T08:46:17.197Z,24.08
2023-04-18T08:47:16.806Z,18.36
2023-04-18T08:48:16.816Z,30.19
2023-04-18T08:49:16.941Z,41.52
2023-04-18T08:50:16.850Z,40.41
2023-04-18T08:51:17.128Z,37.76
2023-04-18T08:52:16.944Z,26.58
2023-04-18T08:53:18.681Z,37.95
2023-04-18T08:54:16.961Z,24.06
2023-04-18T08:55:17.103Z,32.17
2023-04-18T08:56:17.105Z,27.77
2023-04-18T08:57:17.144Z,29.19
2023-04-18T08:58:17.175Z,25.28
2023-04-18T08:59:17.214Z,25.00
2023-04-18T09:00:17.276Z,26.32
2023-04-18T09:01:17.368Z,25.90
2023-04-18T09:02:17.354Z,25.00
2023-04-18T09:03:17.424Z,26.50
2023-04-18T09:04:17.494Z,26.21
2023-04-18T09:05:17.439Z,24.32
2023-04-18T09:06:17.527Z,24.49
2023-04-18T09:07:17.537Z,25.13
2023-04-18T09:08:17.585Z,30.12
2023-04-18T09:09:17.615Z,28.92
2023-04-18T09:10:17.651Z,25.85
2023-04-18T09:11:18.147Z,25.00
2023-04-18T09:12:17.731Z,25.05
2023-04-18T09:13:17.743Z,27.80
2023-04-18T09:14:17.780Z,30.75
2023-04-18T09:15:17.761Z,28.93
2023-04-18T09:16:17.801Z,30.75
2023-04-18T09:17:17.784Z,27.92
2023-04-18T09:18:17.759Z,27.76
2023-04-18T09:19:17.962Z,26.09
2023-04-18T09:20:17.753Z,27.40
2023-04-18T09:21:17.773Z,25.00
2023-04-18T09:22:17.755Z,25.00
2023-04-18T09:23:17.729Z,26.21
2023-04-18T09:24:17.715Z,25.49
2023-04-18T09:25:17.717Z,32.05
2023-04-18T09:26:18.134Z,29.72
2023-04-18T09:27:17.789Z,32.49
2023-04-18T09:28:17.803Z,28.49
2023-04-18T09:29:17.826Z,30.90
2023-04-18T09:30:17.826Z,34.01
2023-04-18T09:31:17.885Z,34.73
2023-04-18T09:32:17.847Z,37.78
2023-04-18T09:33:17.837Z,34.96
2023-04-18T09:34:17.865Z,33.10
2023-04-18T09:35:17.869Z,36.97
2023-04-18T09:36:17.903Z,36.15
2023-04-18T09:37:17.913Z,44.00
2023-04-18T09:38:17.921Z,46.79
2023-04-18T09:39:17.948Z,46.43
2023-04-18T09:40:17.956Z,48.63
2023-04-18T09:41:21.184Z,47.60
2023-04-18T09:42:17.925Z,49.47
2023-04-18T09:43:17.915Z,39.97
2023-04-18T09:44:17.985Z,46.98
2023-04-18T09:45:17.848Z,58.06
2023-04-18T09:46:18.216Z,58.61
2023-04-18T09:47:17.738Z,67.79
2023-04-18T09:48:17.753Z,73.78
2023-04-18T09:49:17.884Z,78.08
2023-04-18T09:50:17.648Z,81.27
2023-04-18T09:51:17.669Z,84.33
2023-04-18T09:52:17.573Z,88.85
2023-04-18T09:53:18.868Z,91.57
2023-04-18T09:54:17.602Z,91.66
2023-04-18T09:55:17.489Z,91.88
2023-04-18T09:56:17.440Z,93.15
2023-04-18T09:57:17.373Z,94.93
2023-04-18T09:58:17.335Z,98.68
2023-04-18T09:59:18.146Z,104.94
2023-04-18T10:00:17.462Z,108.57
2023-04-18T10:01:17.390Z,109.29
2023-04-18T10:02:17.385Z,111.00
2023-04-18T10:03:17.354Z,114.50
2023-04-18T10:04:17.497Z,116.43
2023-04-18T10:05:19.554Z,118.14
2023-04-18T10:06:17.272Z,122.64
2023-04-18T10:07:17.226Z,124.36
2023-04-18T10:08:17.169Z,124.49
2023-04-18T10:09:17.172Z,128.49
2023-04-18T10:10:17.090Z,129.36
2023-04-18T10:11:18.600Z,130.36
2023-04-18T10:12:17.017Z,135.06
2023-04-18T10:13:16.944Z,136.11
2023-04-18T10:14:17.159Z,138.11
2023-04-18T10:15:16.891Z,138.12
2023-04-18T10:16:16.936Z,139.98
2023-04-18T10:17:16.779Z,141.99
2023-04-18T10:18:16.863Z,142.12
2023-04-18T10:19:16.713Z,143.27
2023-04-18T10:20:16.641Z,144.98
2023-04-18T10:21:16.602Z,146.19
2023-04-18T10:22:16.534Z,147.60
2023-04-18T10:23:16.525Z,149.41
2023-04-18T10:24:16.483Z,150.43
2023-04-18T10:25:16.422Z,152.34
2023-04-18T10:26:16.672Z,152.66
2023-04-18T10:27:16.346Z,155.41
2023-04-18T10:28:16.302Z,157.30
2023-04-18T10:29:16.266Z,157.19
2023-04-18T10:30:16.224Z,159.57
2023-04-18T10:31:16.264Z,161.90
2023-04-18T10:32:16.143Z,163.32
2023-04-18T10:33:27.862Z,164.79
2023-04-18T10:34:17.057Z,165.02
2023-04-18T10:35:16.013Z,165.38
2023-04-18T10:36:16.186Z,166.07
2023-04-18T10:37:15.923Z,167.49
2023-04-18T10:38:15.889Z,170.20
2023-04-18T10:39:15.822Z,170.64
2023-04-18T10:40:15.779Z,172.32
2023-04-18T10:41:16.165Z,174.58
2023-04-18T10:42:15.710Z,167.89
2023-04-18T10:43:15.667Z,159.68
2023-04-18T10:44:16.213Z,151.84
2023-04-18T10:45:15.563Z,166.00
2023-04-18T10:46:30.508Z,167.08
2023-04-18T10:47:16.532Z,167.24
2023-04-18T10:48:15.437Z,167.24
2023-04-18T10:49:15.586Z,110.22
2023-04-18T10:50:15.386Z,85.25
2023-04-18T10:51:15.323Z,80.33
2023-04-18T10:52:15.286Z,64.32
2023-04-18T10:53:15.220Z,49.44
2023-04-18T10:54:15.298Z,32.26
2023-04-18T10:55:15.153Z,25.00
2023-04-18T10:56:15.210Z,24.91
2023-04-18T10:57:15.290Z,22.55
2023-04-18T10:58:15.116Z,25.38
2023-04-18T10:59:15.149Z,24.37
2023-04-18T11:00:15.536Z,25.00
2023-04-18T11:01:15.246Z,25.00
2023-04-18T11:02:15.307Z,25.00
2023-04-18T11:03:15.352Z,28.52
2023-04-18T11:04:15.790Z,27.34
2023-04-18T11:05:15.372Z,26.46
2023-04-18T11:06:15.406Z,25.65
2023-04-18T11:07:15.484Z,34.31
2023-04-18T11:08:15.504Z,27.60
2023-04-18T11:09:15.544Z,25.17
2023-04-18T11:10:15.617Z,28.88
2023-04-18T11:11:15.638Z,24.39
2023-04-18T11:12:15.666Z,25.00
2023-04-18T11:13:15.734Z,31.35
2023-04-18T11:14:15.886Z,30.31
2023-04-18T11:15:15.811Z,30.42
2023-04-18T11:16:15.918Z,25.49
2023-04-18T11:17:15.939Z,25.01
2023-04-18T11:18:16.007Z,25.80
2023-04-18T11:19:15.979Z,35.30
2023-04-18T11:20:16.055Z,26.33
2023-04-18T11:21:16.049Z,28.46
2023-04-18T11:22:16.193Z,28.22
2023-04-18T11:23:16.118Z,38.23
2023-04-18T11:24:16.281Z,40.46
2023-04-18T11:25:16.211Z,29.56
2023-04-18T11:26:16.240Z,48.04
2023-04-18T11:27:16.700Z,74.18
2023-04-18T11:28:16.262Z,93.07
2023-04-18T11:29:16.321Z,83.09
2023-04-18T11:30:16.364Z,105.57
2023-04-18T11:31:16.337Z,94.02
2023-04-18T11:32:16.818Z,103.33
2023-04-18T11:33:16.431Z,101.00
2023-04-18T11:34:16.395Z,104.17
2023-04-18T11:35:16.399Z,108.22
2023-04-18T11:36:16.356Z,108.37
2023-04-18T11:37:16.680Z,113.37
2023-04-18T11:38:16.371Z,110.61
2023-04-18T11:39:16.326Z,106.82
2023-04-18T11:40:16.335Z,103.57
2023-04-18T11:41:16.343Z,108.12
2023-04-18T11:42:16.354Z,105.84
2023-04-18T11:43:16.331Z,107.86
2023-04-18T11:44:16.349Z,105.36
2023-04-18T11:45:16.325Z,108.33
2023-04-18T11:46:16.375Z,101.94
2023-04-18T11:47:16.373Z,97.18
2023-04-18T11:48:16.362Z,94.20
2023-04-18T11:49:16.359Z,92.11
2023-04-18T11:50:16.435Z,93.20
2023-04-18T11:51:16.387Z,96.87
2023-04-18T11:52:16.378Z,98.34
2023-04-18T11:53:16.397Z,97.08
2023-04-18T11:54:16.385Z,96.14
2023-04-18T11:55:16.393Z,92.99
2023-04-18T11:56:16.428Z,97.32
2023-04-18T11:57:16.690Z,88.12
2023-04-18T11:58:16.444Z,87.38
2023-04-18T11:59:16.444Z,87.05
2023-04-18T12:00:16.494Z,87.53
2023-04-18T12:01:16.478Z,89.43
2023-04-18T12:02:17.180Z,88.92
2023-04-18T12:03:16.820Z,88.59
2023-04-18T12:04:17.027Z,94.03
2023-04-18T12:05:16.691Z,89.20
2023-04-18T12:06:16.604Z,89.65
2023-04-18T12:07:16.568Z,84.31
2023-04-18T12:08:16.556Z,84.32
2023-04-18T12:09:16.566Z,84.20
2023-04-18T12:10:16.612Z,81.54
2023-04-18T12:11:16.582Z,86.25
2023-04-18T12:12:16.599Z,76.73
2023-04-18T12:13:16.597Z,75.22
2023-04-18T12:14:16.609Z,65.95
2023-04-18T12:15:16.623Z,70.09
2023-04-18T12:16:16.728Z,81.57
2023-04-18T12:17:16.670Z,88.57
2023-04-18T12:18:16.656Z,99.44
2023-04-18T12:19:16.655Z,107.12
2023-04-18T12:20:16.651Z,110.23
2023-04-18T12:21:17.187Z,114.19
2023-04-18T12:22:16.698Z,117.42
2023-04-18T12:23:16.634Z,121.16
2023-04-18T12:24:16.853Z,123.93
2023-04-18T12:25:16.628Z,127.92
2023-04-18T12:26:16.612Z,129.69
2023-04-18T12:27:16.621Z,129.29
2023-04-18T12:28:16.608Z,130.44
2023-04-18T12:29:16.599Z,130.84
2023-04-18T12:30:16.588Z,132.22
2023-04-18T12:31:16.585Z,131.61
2023-04-18T12:32:16.569Z,132.33
2023-04-18T12:33:16.557Z,134.01
2023-04-18T12:34:16.549Z,135.01
2023-04-18T12:35:16.537Z,135.03
2023-04-18T12:36:16.498Z,135.02
2023-04-18T12:37:16.500Z,136.33
2023-04-18T12:38:16.514Z,136.44
2023-04-18T12:39:16.457Z,136.59
2023-04-18T12:40:16.467Z,138.44
2023-04-18T12:41:16.446Z,138.27
2023-04-18T12:42:16.430Z,139.00
2023-04-18T12:43:16.431Z,138.74
2023-04-18T12:44:16.414Z,140.06
2023-04-18T12:45:16.405Z,140.58